Time;durP1;ratioP1;P1;durP2;ratioP2;P2;SDS_P1;SDS_P2;PMS_P1;PMS_P2;Temp;Humidity;BMP_temperature;BMP_pressure;BME280_temperature;BME280_humidity;BME280_pressure;Samples;Min_cycle;Max_cycle;Signal;HPM_P1;HPM_P2
2023/10/18 00:01:26;;;;;;;29.98;11.75;;;13.30;91.50;;;;;;5069580;28;20458;-56
2023/10/18 00:03:55;;;;;;;26.15;11.88;;;13.40;91.20;;;;;;5069512;28;20480;-56
2023/10/18 00:06:23;;;;;;;39.35;12.85;;;13.30;91.20;;;;;;5069912;28;20080;-57
2023/10/18 00:08:49;;;;;;;27.08;11.70;;;13.30;91.20;;;;;;5070030;28;20028;-57
2023/10/18 00:11:17;;;;;;;32.35;11.55;;;13.30;91.20;;;;;;5069390;28;20491;-57
2023/10/18 00:13:45;;;;;;;34.60;11.50;;;13.30;91.20;;;;;;5069839;28;20511;-57
2023/10/18 00:16:12;;;;;;;35.92;11.82;;;13.30;91.20;;;;;;5069515;28;20032;-56
2023/10/18 00:18:38;;;;;;;30.83;11.23;;;13.20;91.20;;;;;;5069652;28;20025;-56
2023/10/18 00:21:05;;;;;;;32.88;11.55;;;13.20;91.20;;;;;;5068940;28;20043;-56
2023/10/18 00:23:31;;;;;;;26.42;10.93;;;13.30;91.20;;;;;;5069447;28;20052;-57
2023/10/18 00:26:06;;;;;;;23.38;11.77;;;13.20;91.20;;;;;;5052470;28;20440;-56
2023/10/18 00:28:34;;;;;;;29.25;12.32;;;13.20;91.20;;;;;;5069389;28;20029;-56
2023/10/18 00:31:12;;;;;;;35.55;11.70;;;13.20;91.20;;;;;;5068956;28;20025;-57
2023/10/18 00:33:39;;;;;;;32.30;11.98;;;13.20;91.20;;;;;;5068992;28;20031;-56
2023/10/18 00:36:04;;;;;;;31.60;11.55;;;13.20;91.20;;;;;;5086680;28;20033;-57
2023/10/18 00:38:30;;;;;;;27.08;11.52;;;13.20;91.20;;;;;;5052278;28;20038;-56
2023/10/18 00:40:56;;;;;;;25.27;10.60;;;13.20;91.20;;;;;;5086812;28;20051;-57
2023/10/18 00:43:23;;;;;;;22.17;10.48;;;13.20;91.20;;;;;;5086776;28;20040;-56
2023/10/18 00:45:52;;;;;;;25.67;10.50;;;13.10;91.20;;;;;;5086694;28;20031;-56
2023/10/18 00:48:19;;;;;;;24.40;10.43;;;13.10;91.20;;;;;;5086643;28;20017;-57
2023/10/18 00:50:48;;;;;;;26.52;10.80;;;13.10;91.20;;;;;;5068844;28;20025;-57
2023/10/18 00:53:19;;;;;;;21.35;10.63;;;13.10;91.20;;;;;;5069133;28;20025;-56
2023/10/18 00:55:52;;;;;;;26.15;10.45;;;13.20;91.30;;;;;;5069542;28;20088;-56
2023/10/18 00:58:19;;;;;;;27.58;10.90;;;13.10;91.30;;;;;;5086928;28;20032;-56
2023/10/18 01:00:45;;;;;;;24.80;10.85;;;13.10;91.30;;;;;;5068561;28;20104;-56
2023/10/18 01:03:19;;;;;;;23.60;10.68;;;13.10;91.30;;;;;;5068630;28;20037;-56
2023/10/18 01:06:08;;;;;;;21.75;10.65;;;13.10;91.30;;;;;;5086357;28;20080;-56
2023/10/18 01:08:39;;;;;;;20.50;10.45;;;13.10;91.30;;;;;;5085981;28;20021;-56
2023/10/18 01:11:07;;;;;;;29.05;10.77;;;13.10;91.30;;;;;;5069457;28;20024;-56
2023/10/18 01:13:43;;;;;;;22.00;10.27;;;13.00;91.30;;;;;;5068809;28;20037;-56
2023/10/18 01:16:14;;;;;;;21.30;9.90;;;13.00;91.30;;;;;;5069711;28;20048;-56
2023/10/18 01:18:43;;;;;;;19.10;9.90;;;13.10;91.40;;;;;;5086522;28;20037;-56
2023/10/18 01:21:19;;;;;;;21.77;10.43;;;13.20;91.70;;;;;;5068498;28;20036;-56
2023/10/18 01:23:54;;;;;;;17.85;10.52;;;13.00;91.40;;;;;;5086157;28;20043;-56
2023/10/18 01:26:24;;;;;;;21.65;10.32;;;13.00;91.40;;;;;;5068455;28;20028;-56
2023/10/18 01:28:51;;;;;;;19.15;10.65;;;13.00;91.40;;;;;;5068444;28;20052;-56
2023/10/18 01:31:17;;;;;;;20.92;10.07;;;13.00;91.50;;;;;;5068282;28;20017;-56
2023/10/18 01:33:50;;;;;;;20.58;10.70;;;13.00;91.40;;;;;;5068242;28;20025;-57
2023/10/18 01:36:20;;;;;;;21.77;10.30;;;13.00;91.50;;;;;;5069227;28;20062;-56
2023/10/18 01:38:51;;;;;;;19.05;10.98;;;12.90;91.40;;;;;;5068945;28;20062;-56
2023/10/18 01:41:25;;;;;;;19.27;10.20;;;13.00;91.50;;;;;;5067877;28;20032;-56
2023/10/18 01:43:52;;;;;;;21.52;9.95;;;13.00;91.50;;;;;;5086034;28;20036;-56
2023/10/18 01:46:18;;;;;;;17.17;9.88;;;13.00;91.50;;;;;;5067845;28;20042;-56
2023/10/18 01:48:50;;;;;;;20.50;10.43;;;12.90;91.50;;;;;;5068185;28;20040;-57
2023/10/18 01:51:16;;;;;;;17.95;10.95;;;12.90;91.50;;;;;;5085968;28;20028;-56
2023/10/18 01:53:43;;;;;;;16.48;9.70;;;12.90;91.50;;;;;;5068162;28;20029;-56
2023/10/18 01:56:09;;;;;;;19.58;11.32;;;12.90;91.60;;;;;;5085874;28;20047;-55
2023/10/18 01:58:35;;;;;;;21.02;10.68;;;12.90;91.60;;;;;;5067930;28;20024;-56
2023/10/18 02:01:02;;;;;;;17.15;10.75;;;12.90;91.60;;;;;;5085624;28;20556;-56
2023/10/18 02:03:29;;;;;;;16.88;10.48;;;12.90;91.60;;;;;;5067931;28;20120;-56
2023/10/18 02:05:54;;;;;;;17.42;11.52;;;12.90;91.60;;;;;;5068063;28;20024;-56
2023/10/18 02:08:20;;;;;;;14.30;10.10;;;12.90;91.60;;;;;;5085836;28;20025;-57
2023/10/18 02:10:46;;;;;;;19.73;11.65;;;12.90;91.60;;;;;;5067814;28;20026;-56
2023/10/18 02:13:15;;;;;;;19.65;11.82;;;12.90;91.60;;;;;;5067947;28;20043;-57
2023/10/18 02:15:41;;;;;;;20.42;11.80;;;12.90;91.50;;;;;;5068048;28;20037;-56
2023/10/18 02:18:10;;;;;;;19.27;11.73;;;12.90;91.50;;;;;;5068709;28;20050;-56
2023/10/18 02:20:37;;;;;;;22.67;13.27;;;12.90;91.50;;;;;;5067885;28;20523;-56
2023/10/18 02:23:10;;;;;;;16.60;12.55;;;12.90;91.60;;;;;;5089368;28;20414;-57
2023/10/18 02:25:45;;;;;;;18.17;12.18;;;12.90;91.60;;;;;;5055955;28;20050;-57
2023/10/18 02:28:27;;;;;;;19.58;12.15;;;12.90;91.60;;;;;;5073042;28;20028;-57
2023/10/18 02:33:30;;;;;;;17.60;11.68;;;12.90;91.60;;;;;;5071217;28;20060;-56
2023/10/18 02:35:57;;;;;;;19.02;12.40;;;12.90;91.70;;;;;;5071694;28;20028;-56
2023/10/18 02:38:23;;;;;;;16.55;11.85;;;12.90;91.70;;;;;;5089113;28;20044;-57
2023/10/18 02:40:49;;;;;;;15.10;11.65;;;12.90;91.80;;;;;;5071145;28;20036;-56
2023/10/18 02:43:15;;;;;;;15.98;11.73;;;12.90;91.80;;;;;;5089088;28;20585;-56
2023/10/18 02:45:43;;;;;;;17.30;12.07;;;12.80;91.70;;;;;;5089054;28;20033;-56
2023/10/18 02:48:09;;;;;;;15.18;12.18;;;12.90;91.70;;;;;;5071320;28;20032;-56
2023/10/18 02:50:38;;;;;;;17.52;11.90;;;12.90;91.80;;;;;;5054352;28;20073;-56
2023/10/18 02:53:06;;;;;;;15.57;11.68;;;12.90;91.80;;;;;;5071508;28;20033;-56
2023/10/18 02:55:32;;;;;;;21.27;12.07;;;12.90;91.80;;;;;;5088847;28;20033;-56
2023/10/18 02:57:59;;;;;;;22.63;11.88;;;12.90;91.80;;;;;;5070892;28;20093;-56
2023/10/18 03:00:25;;;;;;;20.45;13.20;;;12.90;91.80;;;;;;5088775;28;20039;-56
2023/10/18 03:02:50;;;;;;;16.42;12.35;;;12.90;91.80;;;;;;5070989;28;20033;-56
2023/10/18 03:05:20;;;;;;;18.27;12.48;;;12.90;91.90;;;;;;5088794;28;20453;-57
2023/10/18 03:07:45;;;;;;;21.52;12.95;;;12.80;91.90;;;;;;5071293;28;20036;-56
2023/10/18 03:10:26;;;;;;;17.55;12.80;;;12.90;91.90;;;;;;5088783;28;20153;-56
2023/10/18 03:12:53;;;;;;;18.35;12.07;;;12.80;91.90;;;;;;5088798;28;20127;-56
2023/10/18 03:15:20;;;;;;;18.30;13.00;;;12.90;91.90;;;;;;5088729;28;20025;-56
2023/10/18 03:17:49;;;;;;;17.35;13.02;;;12.90;91.90;;;;;;5071313;28;20032;-56
2023/10/18 03:20:26;;;;;;;18.17;12.30;;;12.80;91.90;;;;;;5071329;28;20024;-56
2023/10/18 03:22:52;;;;;;;18.52;13.43;;;12.90;91.90;;;;;;5072010;28;20028;-56
2023/10/18 03:25:26;;;;;;;16.25;12.82;;;12.80;91.90;;;;;;5088413;28;20028;-56
2023/10/18 03:27:57;;;;;;;17.67;13.82;;;12.90;92.00;;;;;;5071657;28;20024;-56
2023/10/18 03:30:27;;;;;;;18.20;13.68;;;12.90;92.00;;;;;;5071240;28;20017;-56
2023/10/18 03:32:54;;;;;;;17.83;13.70;;;12.90;92.00;;;;;;5070755;28;20029;-56
2023/10/18 03:35:21;;;;;;;20.90;12.77;;;12.80;91.90;;;;;;5086800;28;20053;-56
2023/10/18 03:37:47;;;;;;;18.73;13.40;;;12.80;91.90;;;;;;5086681;28;20037;-57
2023/10/18 03:40:20;;;;;;;23.45;13.52;;;12.80;91.90;;;;;;5070234;28;20087;-56
2023/10/18 03:42:46;;;;;;;18.88;12.85;;;12.80;92.00;;;;;;5071239;28;20082;-57
2023/10/18 03:45:13;;;;;;;20.48;13.27;;;12.80;92.00;;;;;;5088046;28;20012;-56
2023/10/18 03:47:39;;;;;;;18.75;13.32;;;12.80;92.00;;;;;;5070181;28;20024;-56
2023/10/18 03:50:18;;;;;;;22.08;14.65;;;12.80;92.00;;;;;;5069830;28;20036;-56
2023/10/18 03:52:45;;;;;;;17.45;13.18;;;12.80;92.00;;;;;;5087840;28;20036;-56
2023/10/18 03:55:17;;;;;;;18.90;12.77;;;12.80;92.10;;;;;;5070248;28;20092;-56
2023/10/18 03:57:43;;;;;;;16.00;13.07;;;12.80;92.10;;;;;;5070721;28;20025;-56
2023/10/18 04:00:28;;;;;;;16.90;12.95;;;12.80;92.10;;;;;;5087641;28;20063;-56
2023/10/18 04:02:56;;;;;;;20.53;13.17;;;12.80;92.00;;;;;;5072429;28;20040;-56
2023/10/18 04:05:45;;;;;;;19.90;13.15;;;12.80;92.00;;;;;;5070107;28;20021;-56
2023/10/18 04:08:13;;;;;;;18.92;12.63;;;12.80;92.00;;;;;;5086885;28;20072;-56
2023/10/18 04:10:40;;;;;;;19.33;12.93;;;12.80;92.10;;;;;;5070183;28;20028;-56
2023/10/18 04:13:11;;;;;;;23.10;13.55;;;12.70;92.10;;;;;;5069683;28;20037;-56
2023/10/18 04:15:41;;;;;;;21.77;13.05;;;12.90;92.10;;;;;;5070133;28;20032;-56
2023/10/18 04:20:36;;;;;;;29.15;12.88;;;12.80;92.10;;;;;;5087008;28;20024;-56
2023/10/18 04:23:21;;;;;;;19.77;12.55;;;12.80;92.10;;;;;;5069133;28;20028;-56
2023/10/18 04:26:03;;;;;;;26.80;13.48;;;12.80;92.20;;;;;;5072428;28;20024;-57
2023/10/18 04:28:29;;;;;;;30.98;12.98;;;12.80;92.20;;;;;;5069497;28;20025;-56
2023/10/18 04:31:01;;;;;;;112.47;21.08;;;12.80;92.20;;;;;;5068512;28;20024;-57
2023/10/18 04:33:41;;;;;;;76.70;19.60;;;12.80;92.20;;;;;;5068831;28;20035;-56
2023/10/18 04:36:12;;;;;;;70.63;18.92;;;12.80;92.20;;;;;;5086893;28;20511;-56
2023/10/18 04:38:44;;;;;;;68.18;18.00;;;12.80;92.30;;;;;;5069006;28;20024;-57
2023/10/18 04:46:29;;;;;;;40.47;14.50;;;12.80;92.30;;;;;;5086729;28;20040;-56
2023/10/18 04:51:28;;;;;;;53.75;15.95;;;12.80;92.30;;;;;;5086713;28;20024;-56
2023/10/18 04:53:57;;;;;;;44.47;16.40;;;12.80;92.30;;;;;;5054259;28;20024;-56
2023/10/18 04:56:34;;;;;;;56.30;16.88;;;12.80;92.30;;;;;;5068756;28;20032;-56
2023/10/18 04:59:00;;;;;;;66.90;16.58;;;12.80;92.40;;;;;;5054783;28;20028;-56
2023/10/18 05:01:36;;;;;;;67.47;16.80;;;12.70;92.40;;;;;;5052164;28;20103;-56
2023/10/18 05:04:18;;;;;;;49.28;16.30;;;12.80;92.40;;;;;;5052487;28;20032;-56
2023/10/18 05:06:45;;;;;;;65.30;17.58;;;12.80;92.40;;;;;;5070985;28;20035;-57
2023/10/18 05:09:12;;;;;;;53.58;16.15;;;12.70;92.40;;;;;;5086274;28;20025;-56
2023/10/18 05:11:47;;;;;;;62.38;17.45;;;12.80;92.40;;;;;;5085904;28;20079;-56
2023/10/18 05:14:19;;;;;;;54.55;15.93;;;12.80;92.40;;;;;;5069747;28;20028;-56
2023/10/18 05:16:46;;;;;;;65.40;16.50;;;12.70;92.70;;;;;;5052678;28;20033;-56
2023/10/18 05:19:13;;;;;;;59.25;17.42;;;12.80;92.40;;;;;;5068839;28;20020;-56
2023/10/18 05:21:39;;;;;;;56.60;16.38;;;12.70;92.40;;;;;;5086574;28;20102;-56
2023/10/18 05:24:05;;;;;;;53.50;16.23;;;12.80;92.50;;;;;;5086461;28;20193;-56
2023/10/18 05:26:33;;;;;;;44.75;15.45;;;12.70;92.50;;;;;;5086248;28;20020;-56
2023/10/18 05:29:02;;;;;;;64.50;16.10;;;12.70;92.50;;;;;;5086100;28;20095;-56
2023/10/18 05:42:13;;;;;;;55.03;16.65;;;12.70;92.60;;;;;;5069929;28;20029;-56
2023/10/18 05:44:36;;;;;;;55.60;16.60;;;12.70;92.70;;;;;;5070609;28;20043;-56
2023/10/18 05:47:06;;;;;;;47.95;15.70;;;12.70;92.70;;;;;;5068151;28;20025;-56
2023/10/18 05:49:40;;;;;;;55.10;17.23;;;12.70;92.70;;;;;;5068673;28;20055;-56
2023/10/18 05:54:37;;;;;;;39.30;15.93;;;12.70;92.70;;;;;;5069377;28;20115;-56
2023/10/18 05:57:05;;;;;;;38.85;16.48;;;12.70;92.80;;;;;;5089946;28;20032;-56
2023/10/18 06:02:09;;;;;;;40.90;16.92;;;12.70;92.80;;;;;;5089842;28;20033;-57
2023/10/18 06:04:38;;;;;;;40.78;17.17;;;12.70;92.80;;;;;;5059099;28;20016;-57
2023/10/18 06:07:13;;;;;;;40.10;18.35;;;12.70;92.80;;;;;;5072253;28;20030;-56
2023/10/18 06:12:13;;;;;;;35.60;17.77;;;12.70;92.90;;;;;;5055851;28;20041;-56
2023/10/18 06:14:45;;;;;;;39.67;17.23;;;12.70;92.90;;;;;;5072022;28;20066;-56
2023/10/18 06:17:19;;;;;;;38.78;16.60;;;12.70;92.90;;;;;;5064887;28;20021;-56
2023/10/18 06:19:45;;;;;;;32.95;17.55;;;12.70;92.90;;;;;;5068252;28;20037;-56
2023/10/18 06:25:03;;;;;;;33.95;16.45;;;12.70;92.90;;;;;;5055118;28;20028;-56
2023/10/18 06:27:38;;;;;;;32.65;17.80;;;12.70;92.90;;;;;;5087326;28;20039;-56
2023/10/18 06:30:14;;;;;;;35.17;18.25;;;12.70;92.90;;;;;;5088150;28;20111;-56
2023/10/18 06:32:40;;;;;;;34.35;18.35;;;12.70;92.90;;;;;;5080876;28;20032;-56
2023/10/18 06:35:09;;;;;;;38.75;18.77;;;12.70;92.90;;;;;;5084950;28;20037;-56
2023/10/18 06:37:41;;;;;;;32.30;18.27;;;12.70;92.90;;;;;;5071408;28;20134;-56
2023/10/18 06:42:57;;;;;;;40.72;18.70;;;12.70;92.90;;;;;;5071715;28;20506;-56
2023/10/18 06:45:25;;;;;;;28.75;17.13;;;12.70;92.90;;;;;;5069347;28;20023;-56
2023/10/18 06:47:54;;;;;;;29.42;18.33;;;12.70;92.90;;;;;;5086915;28;20040;-56
2023/10/18 06:50:26;;;;;;;33.28;18.15;;;12.70;92.90;;;;;;5069385;28;20020;-56
2023/10/18 06:52:55;;;;;;;35.33;18.20;;;12.70;92.90;;;;;;5052747;28;20036;-56
2023/10/18 06:58:41;;;;;;;32.78;18.40;;;12.70;92.90;;;;;;5073738;28;20046;-56
2023/10/18 07:01:14;;;;;;;30.02;18.67;;;12.70;92.90;;;;;;5088404;28;20487;-56
2023/10/18 07:03:42;;;;;;;30.52;17.88;;;12.70;92.90;;;;;;5071817;28;20037;-56
2023/10/18 07:06:16;;;;;;;24.00;17.50;;;12.70;92.90;;;;;;5088116;28;20099;-56
2023/10/18 07:08:44;;;;;;;29.67;18.73;;;12.70;92.90;;;;;;5055036;28;20028;-56
2023/10/18 07:11:16;;;;;;;27.35;18.20;;;12.70;92.80;;;;;;5088523;28;20031;-56
2023/10/18 07:13:46;;;;;;;28.70;18.67;;;12.80;92.80;;;;;;5088687;28;20028;-56
2023/10/18 07:16:12;;;;;;;31.77;18.45;;;12.70;92.80;;;;;;5088485;28;20032;-56
2023/10/18 07:18:44;;;;;;;31.98;18.10;;;12.70;92.80;;;;;;5088528;28;20050;-56
2023/10/18 07:21:10;;;;;;;31.85;18.65;;;12.80;92.80;;;;;;5070522;28;20036;-56
2023/10/18 07:23:39;;;;;;;28.25;17.65;;;12.80;92.80;;;;;;5088356;28;20490;-56
2023/10/18 07:26:13;;;;;;;33.13;18.17;;;12.80;92.80;;;;;;5070623;28;20441;-56
2023/10/18 07:28:40;;;;;;;28.45;17.63;;;12.80;92.80;;;;;;5071205;28;20624;-56
2023/10/18 07:31:09;;;;;;;28.40;17.75;;;12.80;92.80;;;;;;5070304;28;20081;-56
2023/10/18 07:33:41;;;;;;;26.35;17.60;;;12.80;92.80;;;;;;5070532;28;20029;-56
2023/10/18 07:36:11;;;;;;;24.75;17.95;;;12.80;92.70;;;;;;5081798;28;20092;-58
2023/10/18 07:38:55;;;;;;;25.25;17.73;;;12.80;92.70;;;;;;5062041;28;20571;-56
2023/10/18 07:41:26;;;;;;;27.50;18.02;;;12.90;92.70;;;;;;5052578;28;20033;-56
2023/10/18 07:43:56;;;;;;;24.58;17.92;;;12.90;92.70;;;;;;5077249;28;20037;-56
2023/10/18 07:46:24;;;;;;;29.80;18.15;;;12.90;92.70;;;;;;5066256;28;21299;-57
2023/10/18 07:48:53;;;;;;;26.25;18.50;;;12.90;92.70;;;;;;5069248;28;20151;-56
2023/10/18 07:51:25;;;;;;;28.02;17.40;;;12.90;92.60;;;;;;5072687;28;20028;-56
2023/10/18 07:53:54;;;;;;;22.67;17.08;;;12.90;92.60;;;;;;5078744;28;20037;-56
2023/10/18 07:56:27;;;;;;;27.38;18.10;;;12.90;92.80;;;;;;5049566;28;20031;-56
2023/10/18 07:59:07;;;;;;;31.98;17.48;;;12.90;92.50;;;;;;5087080;28;20033;-56
2023/10/18 08:02:07;;;;;;;42.35;19.10;;;12.90;92.50;;;;;;5056520;28;20040;-56
2023/10/18 08:04:20;;;;;;;37.10;18.90;;;13.00;92.60;;;;;;5071954;28;20045;-56
2023/10/18 08:06:47;;;;;;;49.15;19.45;;;13.00;92.60;;;;;;5069778;28;20028;-56
2023/10/18 08:09:16;;;;;;;42.40;19.23;;;13.00;92.50;;;;;;5091750;28;20024;-56
2023/10/18 08:11:44;;;;;;;40.67;19.20;;;13.00;92.50;;;;;;5055454;28;20052;-56
2023/10/18 08:14:16;;;;;;;35.22;18.33;;;13.00;92.50;;;;;;5049323;28;20542;-56
2023/10/18 08:16:52;;;;;;;55.10;20.75;;;13.10;92.40;;;;;;5050104;28;20061;-56
2023/10/18 08:19:22;;;;;;;44.75;18.23;;;13.00;92.40;;;;;;5071835;28;20029;-56
2023/10/18 08:22:09;;;;;;;45.05;18.70;;;13.10;92.40;;;;;;5051849;28;20105;-56
2023/10/18 08:24:35;;;;;;;44.60;18.58;;;13.10;92.40;;;;;;5068873;28;20039;-56
2023/10/18 08:27:09;;;;;;;47.15;18.75;;;13.10;92.40;;;;;;5068820;28;20092;-56
2023/10/18 08:29:38;;;;;;;70.07;20.23;;;13.10;92.30;;;;;;5064681;28;20027;-56
2023/10/18 08:32:09;;;;;;;56.67;20.27;;;13.10;92.30;;;;;;5097490;28;20025;-56
2023/10/18 08:34:35;;;;;;;67.68;21.65;;;13.10;92.30;;;;;;5053443;28;20048;-56
2023/10/18 08:37:09;;;;;;;66.80;21.67;;;13.20;92.40;;;;;;5079561;28;20028;-56
2023/10/18 08:39:39;;;;;;;69.20;22.30;;;13.20;92.30;;;;;;5067776;28;20107;-56
2023/10/18 08:42:10;;;;;;;59.83;20.38;;;13.20;92.30;;;;;;5091227;28;20028;-56
2023/10/18 08:44:38;;;;;;;72.10;22.17;;;13.20;92.30;;;;;;5080314;28;20035;-56
2023/10/18 08:49:33;;;;;;;70.30;22.52;;;13.20;92.20;;;;;;5054625;28;20024;-56
2023/10/18 08:52:08;;;;;;;60.50;21.55;;;13.30;92.30;;;;;;5075227;28;20495;-56
2023/10/18 08:54:36;;;;;;;55.67;21.67;;;13.30;92.20;;;;;;5106633;28;20404;-56
2023/10/18 08:57:06;;;;;;;56.10;19.38;;;13.30;92.20;;;;;;5079956;28;20028;-56
2023/10/18 08:59:42;;;;;;;47.20;20.60;;;13.30;92.10;;;;;;5071947;28;20085;-56
2023/10/18 09:02:17;;;;;;;56.20;19.45;;;13.30;92.10;;;;;;5070895;28;20028;-56
2023/10/18 09:04:46;;;;;;;70.82;22.20;;;13.30;92.10;;;;;;5070490;28;20033;-56
2023/10/18 09:07:23;;;;;;;74.40;21.20;;;13.30;92.10;;;;;;5066903;28;20035;-57
2023/10/18 09:09:56;;;;;;;59.72;22.58;;;13.40;92.10;;;;;;5061235;28;20035;-56
2023/10/18 09:17:54;;;;;;;68.05;22.42;;;13.40;92.10;;;;;;5059755;28;20673;-57
2023/10/18 09:20:25;;;;;;;59.38;21.67;;;13.50;92.10;;;;;;5047589;28;20028;-56
2023/10/18 09:22:51;;;;;;;73.50;23.02;;;13.50;92.00;;;;;;5051622;28;20049;-56
2023/10/18 09:25:16;;;;;;;76.03;23.30;;;13.50;92.00;;;;;;5065618;28;20021;-57
2023/10/18 09:27:42;;;;;;;57.85;20.98;;;13.50;92.00;;;;;;5043913;28;20029;-56
2023/10/18 09:30:13;;;;;;;61.60;22.30;;;13.50;91.90;;;;;;5066442;28;20032;-56
2023/10/18 09:32:39;;;;;;;56.83;21.23;;;13.60;91.90;;;;;;5074840;28;20091;-56
2023/10/18 09:35:08;;;;;;;52.30;20.85;;;13.60;91.90;;;;;;5071360;28;20028;-57
2023/10/18 09:37:36;;;;;;;68.30;21.98;;;13.60;91.90;;;;;;5084616;28;20047;-56
2023/10/18 09:40:05;;;;;;;59.70;21.52;;;13.60;91.90;;;;;;5091009;28;20044;-57
2023/10/18 09:42:31;;;;;;;48.42;21.42;;;13.60;91.80;;;;;;5072130;28;20024;-56
2023/10/18 09:44:57;;;;;;;63.25;21.65;;;13.60;91.70;;;;;;5057100;28;20036;-56
2023/10/18 09:47:23;;;;;;;56.83;21.00;;;13.60;91.80;;;;;;5066454;28;20042;-57
2023/10/18 09:49:50;;;;;;;44.33;19.20;;;13.60;91.80;;;;;;5105725;28;20088;-57
2023/10/18 09:52:16;;;;;;;49.13;21.30;;;13.70;91.70;;;;;;5094919;28;20025;-57
2023/10/18 09:54:51;;;;;;;59.88;21.88;;;13.60;91.70;;;;;;5073188;28;20024;-57
2023/10/18 09:57:41;;;;;;;58.33;21.90;;;13.60;91.70;;;;;;5062915;28;20036;-57
2023/10/18 10:00:12;;;;;;;57.22;22.88;;;13.70;91.70;;;;;;5070228;28;20421;-57
2023/10/18 10:02:38;;;;;;;65.03;21.27;;;13.70;91.80;;;;;;5042920;28;20393;-56
2023/10/18 10:05:11;;;;;;;55.83;21.48;;;13.70;91.70;;;;;;5070806;28;20028;-56
2023/10/18 10:07:38;;;;;;;57.75;22.05;;;13.70;91.70;;;;;;5073257;28;20020;-56
2023/10/18 10:10:09;;;;;;;69.45;22.23;;;13.70;91.60;;;;;;5065855;28;20024;-56
2023/10/18 10:12:35;;;;;;;64.70;22.23;;;13.70;91.60;;;;;;5034573;28;20051;-56
2023/10/18 10:15:02;;;;;;;61.47;23.13;;;13.70;91.60;;;;;;5066743;28;20112;-56
2023/10/18 10:17:29;;;;;;;50.50;22.45;;;13.80;91.60;;;;;;5073249;28;20039;-56
2023/10/18 10:20:10;;;;;;;54.15;21.77;;;13.80;91.60;;;;;;5087077;28;20028;-56
2023/10/18 10:22:37;;;;;;;60.22;23.15;;;13.80;91.60;;;;;;5057212;28;20033;-56
2023/10/18 10:25:11;;;;;;;57.90;22.23;;;13.80;91.50;;;;;;5067244;28;20035;-56
2023/10/18 10:30:49;;;;;;;68.18;22.23;;;13.80;91.40;;;;;;5087132;28;20032;-57
2023/10/18 10:32:52;;;;;;;81.53;22.50;;;13.90;91.50;;;;;;5060988;28;20048;-56
2023/10/18 10:35:20;;;;;;;77.97;22.10;;;13.90;91.60;;;;;;5064776;28;20471;-56
2023/10/18 10:37:49;;;;;;;61.70;21.55;;;13.90;91.50;;;;;;5074892;28;20039;-57
2023/10/18 10:43:03;;;;;;;74.72;23.45;;;13.90;91.50;;;;;;5082750;28;20096;-56
2023/10/18 10:45:38;;;;;;;76.45;22.42;;;14.00;91.50;;;;;;5072407;28;20020;-57
2023/10/18 10:48:37;;;;;;;68.45;23.58;;;14.00;91.50;;;;;;5096534;28;20470;-56
2023/10/18 10:51:16;;;;;;;68.43;23.98;;;14.10;91.50;;;;;;5097580;28;20545;-56
2023/10/18 10:53:58;;;;;;;73.18;23.45;;;14.10;91.40;;;;;;5076339;28;20032;-56
2023/10/18 10:56:24;;;;;;;66.78;22.35;;;14.10;91.40;;;;;;5093221;28;20028;-57
2023/10/18 11:01:39;;;;;;;74.28;23.25;;;14.10;91.30;;;;;;5071505;28;20029;-57
2023/10/18 11:04:11;;;;;;;71.43;22.77;;;14.20;91.30;;;;;;5092533;28;20036;-56
2023/10/18 11:06:43;;;;;;;72.60;22.77;;;14.20;91.30;;;;;;5066347;28;20025;-56
2023/10/18 11:09:15;;;;;;;62.50;22.35;;;14.20;91.30;;;;;;5070405;28;20037;-56
2023/10/18 11:11:42;;;;;;;70.38;23.08;;;14.20;91.20;;;;;;5086559;28;20048;-56
2023/10/18 11:14:08;;;;;;;82.43;23.83;;;14.20;91.30;;;;;;5070025;28;20033;-57
2023/10/18 11:16:33;;;;;;;67.88;22.58;;;14.20;91.40;;;;;;5069777;28;20024;-57
2023/10/18 11:19:00;;;;;;;72.60;22.63;;;14.20;91.50;;;;;;5069436;28;20033;-56
2023/10/18 11:21:28;;;;;;;72.57;22.92;;;14.20;91.40;;;;;;5086790;28;20115;-56
2023/10/18 11:24:01;;;;;;;68.20;23.05;;;14.20;91.50;;;;;;5070206;28;20472;-57
2023/10/18 11:26:27;;;;;;;73.13;21.33;;;14.20;91.50;;;;;;5053253;28;20036;-56
2023/10/18 11:28:59;;;;;;;55.63;21.77;;;14.20;91.40;;;;;;5099825;28;20025;-56
2023/10/18 11:31:28;;;;;;;55.75;21.00;;;14.30;91.40;;;;;;5069919;28;20064;-57
2023/10/18 11:36:19;;;;;;;56.20;21.52;;;14.30;91.30;;;;;;5087158;28;20036;-56
2023/10/18 11:41:35;;;;;;;65.93;22.38;;;14.30;91.40;;;;;;5086546;28;20035;-56
2023/10/18 11:44:07;;;;;;;65.53;21.92;;;14.30;91.40;;;;;;5070646;28;20087;-56
2023/10/18 11:47:00;;;;;;;57.58;21.20;;;14.30;91.40;;;;;;5069713;28;20024;-56
2023/10/18 11:49:42;;;;;;;56.50;21.02;;;14.30;91.40;;;;;;5051423;28;20098;-56
2023/10/18 11:52:21;;;;;;;60.85;21.10;;;14.30;91.30;;;;;;5068329;28;21459;-56
2023/10/18 11:54:47;;;;;;;49.70;21.48;;;14.30;91.30;;;;;;5049261;28;20066;-56
2023/10/18 11:57:24;;;;;;;51.35;21.30;;;14.30;91.30;;;;;;5066361;28;20031;-57
2023/10/18 11:59:51;;;;;;;64.13;21.60;;;14.40;91.30;;;;;;5096313;28;20041;-56
2023/10/18 12:02:17;;;;;;;64.40;20.35;;;14.40;91.30;;;;;;5075444;28;20038;-56
2023/10/18 12:04:45;;;;;;;69.25;21.65;;;14.40;91.20;;;;;;5067694;28;20092;-57
2023/10/18 12:07:10;;;;;;;57.00;20.60;;;14.40;91.20;;;;;;5070124;28;20016;-56
2023/10/18 12:09:51;;;;;;;75.35;22.88;;;14.50;91.20;;;;;;5074579;28;20040;-57
2023/10/18 12:12:19;;;;;;;76.53;22.58;;;14.50;91.10;;;;;;5069192;28;20048;-57
2023/10/18 12:14:45;;;;;;;64.25;22.02;;;14.50;91.10;;;;;;5073796;28;20394;-57
2023/10/18 12:17:12;;;;;;;74.68;22.35;;;14.50;91.10;;;;;;5059951;28;20054;-57
2023/10/18 12:19:41;;;;;;;60.65;21.33;;;14.50;91.10;;;;;;5068422;28;20028;-56
2023/10/18 12:22:10;;;;;;;51.47;20.85;;;14.50;91.00;;;;;;5076422;28;20039;-56
2023/10/18 12:24:36;;;;;;;51.03;19.38;;;14.50;91.00;;;;;;5091451;28;20049;-56
2023/10/18 12:29:46;;;;;;;56.67;20.50;;;14.50;91.00;;;;;;5071145;28;20385;-57
2023/10/18 12:32:25;;;;;;;57.97;20.13;;;14.50;90.90;;;;;;5076207;28;20020;-56
2023/10/18 12:34:52;;;;;;;55.92;20.88;;;14.50;90.90;;;;;;5049350;28;20033;-56
2023/10/18 12:37:18;;;;;;;52.13;19.90;;;14.60;90.90;;;;;;5083066;28;20033;-56
2023/10/18 12:39:46;;;;;;;58.20;20.35;;;14.60;90.90;;;;;;5070193;28;20039;-56
2023/10/18 12:42:25;;;;;;;50.20;19.30;;;14.60;90.90;;;;;;5075850;28;20024;-56
2023/10/18 12:44:55;;;;;;;50.70;19.70;;;14.60;90.90;;;;;;5070028;28;20029;-56
2023/10/18 12:47:20;;;;;;;42.33;18.00;;;14.60;90.90;;;;;;5076019;28;20016;-56
2023/10/18 12:49:56;;;;;;;59.25;19.98;;;14.70;90.90;;;;;;5086329;28;20039;-56
2023/10/18 12:55:05;;;;;;;51.30;19.85;;;14.60;90.90;;;;;;5078159;28;20064;-56
2023/10/18 12:57:34;;;;;;;59.15;20.02;;;14.60;90.90;;;;;;5063218;28;20124;-56
2023/10/18 13:00:13;;;;;;;69.80;20.33;;;14.70;90.90;;;;;;5063969;28;20037;-56
2023/10/18 13:02:51;;;;;;;50.85;19.73;;;14.60;90.90;;;;;;5076158;28;20037;-56
2023/10/18 13:05:17;;;;;;;51.65;19.80;;;14.70;90.90;;;;;;5074011;28;20353;-56
2023/10/18 13:07:45;;;;;;;47.10;18.83;;;14.60;90.90;;;;;;5072572;28;20031;-56
2023/10/18 13:10:12;;;;;;;54.22;19.17;;;14.60;90.90;;;;;;5085759;28;20028;-56
2023/10/18 13:12:38;;;;;;;62.28;18.25;;;14.70;91.20;;;;;;5078313;28;20051;-56
2023/10/18 13:15:07;;;;;;;47.22;18.90;;;14.60;90.90;;;;;;5050670;28;20032;-57
2023/10/18 13:17:33;;;;;;;57.72;19.73;;;14.60;90.90;;;;;;5067322;28;20031;-57
2023/10/18 13:19:59;;;;;;;46.90;19.17;;;14.60;90.90;;;;;;5068450;28;20109;-56
2023/10/18 13:22:26;;;;;;;56.47;19.60;;;14.70;91.00;;;;;;5083668;28;20056;-56
2023/10/18 13:24:52;;;;;;;63.20;20.77;;;14.60;91.00;;;;;;5082706;28;20052;-57
2023/10/18 13:27:27;;;;;;;66.63;20.90;;;14.60;91.10;;;;;;5051802;28;20052;-57
2023/10/18 13:32:37;;;;;;;84.80;22.20;;;14.60;91.20;;;;;;5083412;28;20044;-52
2023/10/18 13:35:14;;;;;;;63.67;21.10;;;14.70;91.30;;;;;;5086998;28;20024;-52
2023/10/18 13:37:41;;;;;;;78.95;20.52;;;14.70;91.30;;;;;;5092470;28;20044;-52
2023/10/18 13:40:08;;;;;;;46.45;17.50;;;14.70;91.20;;;;;;5085803;28;20033;-52
2023/10/18 13:42:34;;;;;;;88.10;23.38;;;14.70;91.20;;;;;;5067564;28;20032;-52
2023/10/18 13:45:00;;;;;;;147.15;26.98;;;14.70;91.60;;;;;;5069402;28;20084;-51
2023/10/18 13:47:27;;;;;;;81.85;22.35;;;14.70;91.50;;;;;;5084934;28;20032;-52
2023/10/18 13:49:53;;;;;;;152.13;27.85;;;14.70;91.40;;;;;;5066736;28;20047;-52
2023/10/18 13:52:20;;;;;;;80.60;22.13;;;14.70;91.40;;;;;;5083864;28;20062;-52